Terminal Aerodrome Forecast
Issued by NWS Shreveport, LA

Home | Current Version | Previous Version | Text Only | Print | Product List | Glossary On
Versions: 1 2 3 4 5 6 7 8 9 10 11 12 13 14 15
258
FTUS44 KSHV 281721
TAFELD
TAF
KELD 281721Z 2818/2918 24008KT P6SM SKC
     FM290000 33005KT P6SM SKC
     FM291400 36008KT P6SM SKC=

USA.gov is the U.S. government's official web portal to all federal, state and local government web resources and services.